Terminal Aerodrome Forecast
Issued by NWS Blacksburg, VA

Home | Current Version | Previous Version | Text Only | Print | Product List | Glossary On
Versions: 1 2 3 4 5 6 7 8 9 10 11 12 13 14 15 16 17 18 19
000
FTUS41 KRNK 221501 AAC
TAFDAN
TAF AMD
KDAN 221501Z 2215/2312 36007KT P6SM OVC009
     FM221700 28006KT P6SM BKN035
     FM222100 31004KT P6SM BKN050
     FM230800 05005KT 4SM -SHRA OVC015=

USA.gov is the U.S. government's official web portal to all federal, state and local government web resources and services.